sensor_id;sensor_type;location;lat;lon;timestamp;P1;durP1;ratioP1;P2;durP2;ratioP2
49320;SDS011;35817;44.498;0.166;2022-11-20T00:00:09;43.13;;;33.97;;
49320;SDS011;35817;44.498;0.166;2022-11-20T00:02:36;39.28;;;31.92;;
49320;SDS011;35817;44.498;0.166;2022-11-20T00:05:01;39.55;;;31.70;;
49320;SDS011;35817;44.498;0.166;2022-11-20T00:07:27;39.30;;;29.38;;
49320;SDS011;35817;44.498;0.166;2022-11-20T00:09:53;34.22;;;26.33;;
49320;SDS011;35817;44.498;0.166;2022-11-20T00:12:18;38.80;;;29.08;;
49320;SDS011;35817;44.498;0.166;2022-11-20T00:14:44;35.15;;;27.17;;
49320;SDS011;35817;44.498;0.166;2022-11-20T00:17:09;29.73;;;24.55;;
49320;SDS011;35817;44.498;0.166;2022-11-20T00:19:35;30.85;;;23.73;;
49320;SDS011;35817;44.498;0.166;2022-11-20T00:22:01;28.08;;;23.83;;
49320;SDS011;35817;44.498;0.166;2022-11-20T00:24:26;31.83;;;25.00;;
49320;SDS011;35817;44.498;0.166;2022-11-20T00:26:52;27.73;;;23.58;;
49320;SDS011;35817;44.498;0.166;2022-11-20T00:29:18;30.65;;;23.05;;
49320;SDS011;35817;44.498;0.166;2022-11-20T00:31:43;28.55;;;24.27;;
49320;SDS011;35817;44.498;0.166;2022-11-20T00:34:09;29.48;;;23.00;;
49320;SDS011;35817;44.498;0.166;2022-11-20T00:36:35;25.65;;;20.58;;
49320;SDS011;35817;44.498;0.166;2022-11-20T00:39:01;24.65;;;18.45;;
49320;SDS011;35817;44.498;0.166;2022-11-20T00:41:27;26.73;;;17.75;;
49320;SDS011;35817;44.498;0.166;2022-11-20T00:43:54;19.50;;;14.75;;
49320;SDS011;35817;44.498;0.166;2022-11-20T00:46:23;24.25;;;16.10;;
49320;SDS011;35817;44.498;0.166;2022-11-20T00:48:51;20.55;;;16.60;;
49320;SDS011;35817;44.498;0.166;2022-11-20T00:51:18;20.40;;;17.15;;
49320;SDS011;35817;44.498;0.166;2022-11-20T00:53:45;20.55;;;15.57;;
49320;SDS011;35817;44.498;0.166;2022-11-20T00:56:12;18.48;;;14.63;;
49320;SDS011;35817;44.498;0.166;2022-11-20T00:58:40;19.38;;;15.90;;
49320;SDS011;35817;44.498;0.166;2022-11-20T01:03:33;19.50;;;15.35;;
49320;SDS011;35817;44.498;0.166;2022-11-20T01:06:05;14.18;;;11.57;;
49320;SDS011;35817;44.498;0.166;2022-11-20T01:08:33;16.45;;;12.23;;
49320;SDS011;35817;44.498;0.166;2022-11-20T01:11:00;13.02;;;10.23;;
49320;SDS011;35817;44.498;0.166;2022-11-20T01:13:31;14.98;;;11.48;;
49320;SDS011;35817;44.498;0.166;2022-11-20T01:18:32;11.63;;;10.43;;
49320;SDS011;35817;44.498;0.166;2022-11-20T01:21:06;14.07;;;12.02;;
49320;SDS011;35817;44.498;0.166;2022-11-20T01:23:35;20.77;;;15.43;;
49320;SDS011;35817;44.498;0.166;2022-11-20T01:26:03;19.98;;;15.52;;
49320;SDS011;35817;44.498;0.166;2022-11-20T01:28:31;25.25;;;17.90;;
49320;SDS011;35817;44.498;0.166;2022-11-20T01:30:58;25.08;;;19.40;;
49320;SDS011;35817;44.498;0.166;2022-11-20T01:33:24;26.17;;;20.05;;
49320;SDS011;35817;44.498;0.166;2022-11-20T01:35:50;26.95;;;19.42;;
49320;SDS011;35817;44.498;0.166;2022-11-20T01:38:17;22.02;;;17.20;;
49320;SDS011;35817;44.498;0.166;2022-11-20T01:40:42;21.73;;;18.73;;
49320;SDS011;35817;44.498;0.166;2022-11-20T01:43:14;21.48;;;17.00;;
49320;SDS011;35817;44.498;0.166;2022-11-20T01:51:06;10.35;;;9.20;;
49320;SDS011;35817;44.498;0.166;2022-11-20T01:53:40;10.75;;;7.53;;
49320;SDS011;35817;44.498;0.166;2022-11-20T01:56:08;11.70;;;8.93;;
49320;SDS011;35817;44.498;0.166;2022-11-20T01:58:37;8.77;;;7.47;;
49320;SDS011;35817;44.498;0.166;2022-11-20T02:01:07;9.32;;;7.72;;
49320;SDS011;35817;44.498;0.166;2022-11-20T02:03:33;17.70;;;8.77;;
49320;SDS011;35817;44.498;0.166;2022-11-20T02:06:04;13.02;;;8.45;;
49320;SDS011;35817;44.498;0.166;2022-11-20T02:08:50;13.95;;;8.55;;
49320;SDS011;35817;44.498;0.166;2022-11-20T02:11:17;9.00;;;5.70;;
49320;SDS011;35817;44.498;0.166;2022-11-20T02:13:43;9.68;;;6.15;;
49320;SDS011;35817;44.498;0.166;2022-11-20T02:16:21;7.40;;;6.03;;
49320;SDS011;35817;44.498;0.166;2022-11-20T02:21:21;5.13;;;3.67;;
49320;SDS011;35817;44.498;0.166;2022-11-20T02:24:06;7.50;;;5.03;;
49320;SDS011;35817;44.498;0.166;2022-11-20T02:29:17;6.20;;;3.75;;
49320;SDS011;35817;44.498;0.166;2022-11-20T02:31:49;6.07;;;3.53;;
49320;SDS011;35817;44.498;0.166;2022-11-20T02:34:16;6.75;;;4.00;;
49320;SDS011;35817;44.498;0.166;2022-11-20T02:36:42;5.38;;;4.10;;
49320;SDS011;35817;44.498;0.166;2022-11-20T02:39:09;5.85;;;4.45;;
49320;SDS011;35817;44.498;0.166;2022-11-20T02:41:37;8.20;;;5.70;;
49320;SDS011;35817;44.498;0.166;2022-11-20T02:44:03;6.53;;;5.05;;
49320;SDS011;35817;44.498;0.166;2022-11-20T02:46:30;5.13;;;4.25;;
49320;SDS011;35817;44.498;0.166;2022-11-20T02:48:56;11.32;;;5.88;;
49320;SDS011;35817;44.498;0.166;2022-11-20T02:51:21;7.15;;;5.18;;
49320;SDS011;35817;44.498;0.166;2022-11-20T02:53:47;7.13;;;5.95;;
49320;SDS011;35817;44.498;0.166;2022-11-20T02:56:13;8.10;;;6.22;;
49320;SDS011;35817;44.498;0.166;2022-11-20T02:58:39;9.20;;;6.22;;
49320;SDS011;35817;44.498;0.166;2022-11-20T03:01:04;10.40;;;6.43;;
49320;SDS011;35817;44.498;0.166;2022-11-20T03:03:30;12.88;;;6.05;;
49320;SDS011;35817;44.498;0.166;2022-11-20T03:05:58;11.50;;;7.13;;
49320;SDS011;35817;44.498;0.166;2022-11-20T03:08:24;24.75;;;8.20;;
49320;SDS011;35817;44.498;0.166;2022-11-20T03:10:50;9.60;;;5.95;;
49320;SDS011;35817;44.498;0.166;2022-11-20T03:13:17;11.07;;;6.45;;
49320;SDS011;35817;44.498;0.166;2022-11-20T03:15:42;8.35;;;6.68;;
49320;SDS011;35817;44.498;0.166;2022-11-20T03:18:08;10.57;;;5.82;;
49320;SDS011;35817;44.498;0.166;2022-11-20T03:20:34;10.52;;;5.40;;
49320;SDS011;35817;44.498;0.166;2022-11-20T03:23:00;8.75;;;5.00;;
49320;SDS011;35817;44.498;0.166;2022-11-20T03:25:26;10.25;;;5.43;;
49320;SDS011;35817;44.498;0.166;2022-11-20T03:27:51;8.65;;;4.88;;
49320;SDS011;35817;44.498;0.166;2022-11-20T03:30:17;10.38;;;5.53;;
49320;SDS011;35817;44.498;0.166;2022-11-20T03:32:43;6.47;;;4.38;;
49320;SDS011;35817;44.498;0.166;2022-11-20T03:35:08;9.13;;;3.97;;
49320;SDS011;35817;44.498;0.166;2022-11-20T03:37:34;8.05;;;5.05;;
49320;SDS011;35817;44.498;0.166;2022-11-20T03:40:00;6.38;;;4.57;;
49320;SDS011;35817;44.498;0.166;2022-11-20T03:42:26;10.52;;;6.22;;
49320;SDS011;35817;44.498;0.166;2022-11-20T03:45:10;9.18;;;6.82;;
49320;SDS011;35817;44.498;0.166;2022-11-20T03:47:35;14.25;;;7.68;;
49320;SDS011;35817;44.498;0.166;2022-11-20T03:50:02;10.98;;;6.68;;
49320;SDS011;35817;44.498;0.166;2022-11-20T03:52:28;9.23;;;6.03;;
49320;SDS011;35817;44.498;0.166;2022-11-20T03:54:54;12.30;;;5.85;;
49320;SDS011;35817;44.498;0.166;2022-11-20T03:57:20;11.43;;;6.18;;
49320;SDS011;35817;44.498;0.166;2022-11-20T03:59:45;9.93;;;5.75;;
49320;SDS011;35817;44.498;0.166;2022-11-20T04:02:11;8.15;;;5.70;;
49320;SDS011;35817;44.498;0.166;2022-11-20T04:04:37;12.98;;;7.07;;
49320;SDS011;35817;44.498;0.166;2022-11-20T04:07:02;9.38;;;5.68;;
49320;SDS011;35817;44.498;0.166;2022-11-20T04:09:28;18.98;;;5.80;;
49320;SDS011;35817;44.498;0.166;2022-11-20T04:11:54;13.10;;;6.72;;
49320;SDS011;35817;44.498;0.166;2022-11-20T04:14:20;10.10;;;5.85;;
49320;SDS011;35817;44.498;0.166;2022-11-20T04:16:45;12.23;;;5.13;;
49320;SDS011;35817;44.498;0.166;2022-11-20T04:19:12;17.50;;;5.65;;
49320;SDS011;35817;44.498;0.166;2022-11-20T04:21:40;15.48;;;5.07;;
49320;SDS011;35817;44.498;0.166;2022-11-20T04:24:06;8.20;;;5.43;;
49320;SDS011;35817;44.498;0.166;2022-11-20T04:26:32;13.98;;;5.72;;
49320;SDS011;35817;44.498;0.166;2022-11-20T04:28:58;12.40;;;5.05;;
49320;SDS011;35817;44.498;0.166;2022-11-20T04:31:27;7.57;;;5.43;;
49320;SDS011;35817;44.498;0.166;2022-11-20T04:33:54;9.38;;;6.05;;
49320;SDS011;35817;44.498;0.166;2022-11-20T04:36:21;12.70;;;5.57;;
49320;SDS011;35817;44.498;0.166;2022-11-20T04:38:54;9.82;;;6.40;;
49320;SDS011;35817;44.498;0.166;2022-11-20T04:41:22;8.93;;;4.93;;
49320;SDS011;35817;44.498;0.166;2022-11-20T04:43:51;12.57;;;6.32;;
49320;SDS011;35817;44.498;0.166;2022-11-20T04:46:24;11.32;;;5.90;;
49320;SDS011;35817;44.498;0.166;2022-11-20T04:48:50;11.82;;;5.70;;
49320;SDS011;35817;44.498;0.166;2022-11-20T04:51:16;11.75;;;6.93;;
49320;SDS011;35817;44.498;0.166;2022-11-20T04:53:42;9.05;;;6.10;;
49320;SDS011;35817;44.498;0.166;2022-11-20T04:56:09;12.55;;;7.32;;
49320;SDS011;35817;44.498;0.166;2022-11-20T04:58:36;11.20;;;5.85;;
49320;SDS011;35817;44.498;0.166;2022-11-20T05:01:03;17.30;;;6.78;;
49320;SDS011;35817;44.498;0.166;2022-11-20T05:03:36;9.20;;;6.20;;
49320;SDS011;35817;44.498;0.166;2022-11-20T05:06:02;15.38;;;6.15;;
49320;SDS011;35817;44.498;0.166;2022-11-20T05:08:30;9.10;;;6.25;;
49320;SDS011;35817;44.498;0.166;2022-11-20T05:13:32;10.82;;;6.90;;
49320;SDS011;35817;44.498;0.166;2022-11-20T05:16:06;14.32;;;7.80;;
49320;SDS011;35817;44.498;0.166;2022-11-20T05:18:36;9.20;;;6.07;;
49320;SDS011;35817;44.498;0.166;2022-11-20T05:21:03;12.23;;;7.15;;
49320;SDS011;35817;44.498;0.166;2022-11-20T05:23:30;15.05;;;6.90;;
49320;SDS011;35817;44.498;0.166;2022-11-20T05:25:57;14.25;;;7.28;;
49320;SDS011;35817;44.498;0.166;2022-11-20T05:28:23;16.63;;;7.55;;
49320;SDS011;35817;44.498;0.166;2022-11-20T05:30:50;14.32;;;8.13;;
49320;SDS011;35817;44.498;0.166;2022-11-20T05:33:16;12.85;;;6.88;;
49320;SDS011;35817;44.498;0.166;2022-11-20T05:35:41;14.18;;;6.97;;
49320;SDS011;35817;44.498;0.166;2022-11-20T05:38:07;12.20;;;7.15;;
49320;SDS011;35817;44.498;0.166;2022-11-20T05:40:33;16.42;;;8.30;;
49320;SDS011;35817;44.498;0.166;2022-11-20T05:42:59;15.25;;;7.15;;
49320;SDS011;35817;44.498;0.166;2022-11-20T05:45:25;19.30;;;8.32;;
49320;SDS011;35817;44.498;0.166;2022-11-20T05:47:51;18.92;;;9.13;;
49320;SDS011;35817;44.498;0.166;2022-11-20T05:50:17;13.13;;;7.70;;
49320;SDS011;35817;44.498;0.166;2022-11-20T05:52:43;14.18;;;7.63;;
49320;SDS011;35817;44.498;0.166;2022-11-20T05:55:08;16.30;;;9.52;;
49320;SDS011;35817;44.498;0.166;2022-11-20T05:57:34;11.65;;;5.47;;
49320;SDS011;35817;44.498;0.166;2022-11-20T06:00:00;16.38;;;6.20;;
49320;SDS011;35817;44.498;0.166;2022-11-20T06:02:26;19.10;;;9.95;;
49320;SDS011;35817;44.498;0.166;2022-11-20T06:04:52;8.75;;;4.53;;
49320;SDS011;35817;44.498;0.166;2022-11-20T06:07:17;18.30;;;7.72;;
49320;SDS011;35817;44.498;0.166;2022-11-20T06:09:43;15.00;;;8.43;;
49320;SDS011;35817;44.498;0.166;2022-11-20T06:12:09;18.30;;;8.18;;
49320;SDS011;35817;44.498;0.166;2022-11-20T06:14:34;22.13;;;8.95;;
49320;SDS011;35817;44.498;0.166;2022-11-20T06:17:00;15.65;;;8.88;;
49320;SDS011;35817;44.498;0.166;2022-11-20T06:19:26;17.52;;;9.48;;
49320;SDS011;35817;44.498;0.166;2022-11-20T06:21:51;17.48;;;7.30;;
49320;SDS011;35817;44.498;0.166;2022-11-20T06:24:17;11.07;;;6.00;;
49320;SDS011;35817;44.498;0.166;2022-11-20T06:26:43;22.33;;;9.05;;
49320;SDS011;35817;44.498;0.166;2022-11-20T06:29:09;15.65;;;6.65;;
49320;SDS011;35817;44.498;0.166;2022-11-20T06:31:35;15.13;;;7.43;;
49320;SDS011;35817;44.498;0.166;2022-11-20T06:34:03;14.48;;;7.40;;
49320;SDS011;35817;44.498;0.166;2022-11-20T06:36:31;14.52;;;6.85;;
49320;SDS011;35817;44.498;0.166;2022-11-20T06:38:56;14.52;;;5.78;;
49320;SDS011;35817;44.498;0.166;2022-11-20T06:41:23;13.30;;;6.13;;
49320;SDS011;35817;44.498;0.166;2022-11-20T06:43:49;12.15;;;5.80;;
49320;SDS011;35817;44.498;0.166;2022-11-20T06:46:15;13.18;;;6.30;;
49320;SDS011;35817;44.498;0.166;2022-11-20T06:51:11;23.52;;;9.43;;
49320;SDS011;35817;44.498;0.166;2022-11-20T06:53:37;19.52;;;8.98;;
49320;SDS011;35817;44.498;0.166;2022-11-20T06:56:03;10.10;;;6.47;;
49320;SDS011;35817;44.498;0.166;2022-11-20T06:58:29;15.18;;;4.85;;
49320;SDS011;35817;44.498;0.166;2022-11-20T07:01:03;10.25;;;5.57;;
49320;SDS011;35817;44.498;0.166;2022-11-20T07:03:32;8.60;;;4.22;;
49320;SDS011;35817;44.498;0.166;2022-11-20T07:05:58;13.63;;;5.57;;
49320;SDS011;35817;44.498;0.166;2022-11-20T07:08:25;10.52;;;4.07;;
49320;SDS011;35817;44.498;0.166;2022-11-20T07:10:52;12.55;;;4.55;;
49320;SDS011;35817;44.498;0.166;2022-11-20T07:13:18;10.68;;;4.82;;
49320;SDS011;35817;44.498;0.166;2022-11-20T07:15:43;9.07;;;4.90;;
49320;SDS011;35817;44.498;0.166;2022-11-20T07:18:09;11.55;;;4.68;;
49320;SDS011;35817;44.498;0.166;2022-11-20T07:20:35;13.90;;;4.38;;
49320;SDS011;35817;44.498;0.166;2022-11-20T07:23:00;11.43;;;5.93;;
49320;SDS011;35817;44.498;0.166;2022-11-20T07:25:27;8.95;;;3.83;;
49320;SDS011;35817;44.498;0.166;2022-11-20T07:27:59;9.73;;;3.80;;
49320;SDS011;35817;44.498;0.166;2022-11-20T07:30:26;9.85;;;5.82;;
49320;SDS011;35817;44.498;0.166;2022-11-20T07:32:52;6.70;;;4.05;;
49320;SDS011;35817;44.498;0.166;2022-11-20T07:35:19;6.30;;;3.60;;
49320;SDS011;35817;44.498;0.166;2022-11-20T07:37:45;8.43;;;4.30;;
49320;SDS011;35817;44.498;0.166;2022-11-20T07:40:12;8.50;;;2.35;;
49320;SDS011;35817;44.498;0.166;2022-11-20T07:42:38;6.47;;;2.72;;
49320;SDS011;35817;44.498;0.166;2022-11-20T07:45:04;7.30;;;4.45;;
49320;SDS011;35817;44.498;0.166;2022-11-20T07:47:39;9.38;;;4.25;;
49320;SDS011;35817;44.498;0.166;2022-11-20T07:50:05;5.25;;;2.58;;
49320;SDS011;35817;44.498;0.166;2022-11-20T07:52:31;4.18;;;2.08;;
49320;SDS011;35817;44.498;0.166;2022-11-20T07:54:56;7.07;;;3.40;;
49320;SDS011;35817;44.498;0.166;2022-11-20T07:57:22;5.82;;;2.67;;
49320;SDS011;35817;44.498;0.166;2022-11-20T07:59:48;10.25;;;2.20;;
49320;SDS011;35817;44.498;0.166;2022-11-20T08:02:13;4.95;;;1.08;;
49320;SDS011;35817;44.498;0.166;2022-11-20T08:04:39;3.72;;;2.40;;
49320;SDS011;35817;44.498;0.166;2022-11-20T08:07:05;5.00;;;1.33;;
49320;SDS011;35817;44.498;0.166;2022-11-20T08:09:30;3.35;;;1.65;;
49320;SDS011;35817;44.498;0.166;2022-11-20T08:11:57;3.83;;;1.75;;
49320;SDS011;35817;44.498;0.166;2022-11-20T08:14:41;3.50;;;2.30;;
49320;SDS011;35817;44.498;0.166;2022-11-20T08:17:07;2.95;;;1.73;;
49320;SDS011;35817;44.498;0.166;2022-11-20T08:19:33;3.33;;;1.30;;
49320;SDS011;35817;44.498;0.166;2022-11-20T08:21:58;2.45;;;1.15;;
49320;SDS011;35817;44.498;0.166;2022-11-20T08:24:24;1.58;;;0.90;;
49320;SDS011;35817;44.498;0.166;2022-11-20T08:26:51;4.82;;;1.08;;
49320;SDS011;35817;44.498;0.166;2022-11-20T08:29:17;2.70;;;1.27;;
49320;SDS011;35817;44.498;0.166;2022-11-20T08:31:43;2.30;;;1.33;;
49320;SDS011;35817;44.498;0.166;2022-11-20T08:34:08;2.35;;;1.15;;
49320;SDS011;35817;44.498;0.166;2022-11-20T08:36:34;1.65;;;0.52;;
49320;SDS011;35817;44.498;0.166;2022-11-20T08:39:01;4.55;;;0.90;;
49320;SDS011;35817;44.498;0.166;2022-11-20T08:41:28;1.95;;;1.23;;
49320;SDS011;35817;44.498;0.166;2022-11-20T08:46:23;2.80;;;1.25;;
49320;SDS011;35817;44.498;0.166;2022-11-20T08:48:50;2.85;;;0.95;;
49320;SDS011;35817;44.498;0.166;2022-11-20T08:51:16;4.90;;;1.33;;
49320;SDS011;35817;44.498;0.166;2022-11-20T08:53:42;2.50;;;1.42;;
49320;SDS011;35817;44.498;0.166;2022-11-20T08:56:08;3.80;;;1.17;;
49320;SDS011;35817;44.498;0.166;2022-11-20T08:58:36;1.45;;;1.20;;
49320;SDS011;35817;44.498;0.166;2022-11-20T09:01:03;1.27;;;0.70;;
49320;SDS011;35817;44.498;0.166;2022-11-20T09:03:29;1.92;;;1.55;;
49320;SDS011;35817;44.498;0.166;2022-11-20T09:05:58;2.72;;;1.58;;
49320;SDS011;35817;44.498;0.166;2022-11-20T09:08:29;4.85;;;1.45;;
49320;SDS011;35817;44.498;0.166;2022-11-20T09:10:55;8.32;;;1.98;;
49320;SDS011;35817;44.498;0.166;2022-11-20T09:13:23;3.47;;;1.38;;
49320;SDS011;35817;44.498;0.166;2022-11-20T09:15:54;3.00;;;1.20;;
49320;SDS011;35817;44.498;0.166;2022-11-20T09:18:24;4.40;;;1.58;;
49320;SDS011;35817;44.498;0.166;2022-11-20T09:20:50;6.15;;;1.40;;
49320;SDS011;35817;44.498;0.166;2022-11-20T09:23:17;2.58;;;1.65;;
49320;SDS011;35817;44.498;0.166;2022-11-20T09:25:43;4.13;;;1.02;;
49320;SDS011;35817;44.498;0.166;2022-11-20T09:28:08;4.47;;;1.00;;
49320;SDS011;35817;44.498;0.166;2022-11-20T09:30:34;3.33;;;1.00;;
49320;SDS011;35817;44.498;0.166;2022-11-20T09:33:00;2.28;;;1.05;;
49320;SDS011;35817;44.498;0.166;2022-11-20T09:35:26;1.67;;;0.82;;
49320;SDS011;35817;44.498;0.166;2022-11-20T09:37:51;2.63;;;1.13;;
49320;SDS011;35817;44.498;0.166;2022-11-20T09:43:00;6.13;;;0.70;;
49320;SDS011;35817;44.498;0.166;2022-11-20T09:51:08;1.50;;;0.93;;
49320;SDS011;35817;44.498;0.166;2022-11-20T09:56:16;7.47;;;1.52;;
49320;SDS011;35817;44.498;0.166;2022-11-20T09:58:47;2.05;;;1.25;;
49320;SDS011;35817;44.498;0.166;2022-11-20T10:01:19;2.65;;;0.70;;
49320;SDS011;35817;44.498;0.166;2022-11-20T10:03:56;1.80;;;0.77;;
49320;SDS011;35817;44.498;0.166;2022-11-20T10:06:33;5.63;;;2.00;;
49320;SDS011;35817;44.498;0.166;2022-11-20T10:22:51;2.22;;;0.93;;
49320;SDS011;35817;44.498;0.166;2022-11-20T10:25:39;1.98;;;0.70;;
49320;SDS011;35817;44.498;0.166;2022-11-20T10:28:29;3.50;;;1.38;;
49320;SDS011;35817;44.498;0.166;2022-11-20T10:31:08;4.78;;;0.85;;
49320;SDS011;35817;44.498;0.166;2022-11-20T10:33:41;1.23;;;0.43;;
49320;SDS011;35817;44.498;0.166;2022-11-20T10:36:14;1.35;;;0.70;;
49320;SDS011;35817;44.498;0.166;2022-11-20T10:39:05;2.83;;;0.80;;
49320;SDS011;35817;44.498;0.166;2022-11-20T10:41:40;4.03;;;0.88;;
49320;SDS011;35817;44.498;0.166;2022-11-20T10:44:15;1.80;;;0.80;;
49320;SDS011;35817;44.498;0.166;2022-11-20T10:47:05;2.47;;;0.82;;
49320;SDS011;35817;44.498;0.166;2022-11-20T10:49:39;6.90;;;0.93;;
49320;SDS011;35817;44.498;0.166;2022-11-20T10:57:50;2.85;;;0.60;;
49320;SDS011;35817;44.498;0.166;2022-11-20T11:00:18;2.83;;;0.70;;
49320;SDS011;35817;44.498;0.166;2022-11-20T11:02:46;3.15;;;1.20;;
49320;SDS011;35817;44.498;0.166;2022-11-20T11:05:25;1.53;;;0.87;;
49320;SDS011;35817;44.498;0.166;2022-11-20T11:08:07;2.33;;;0.65;;
49320;SDS011;35817;44.498;0.166;2022-11-20T11:10:51;4.82;;;0.88;;
49320;SDS011;35817;44.498;0.166;2022-11-20T11:13:22;1.73;;;0.75;;
49320;SDS011;35817;44.498;0.166;2022-11-20T11:15:49;2.42;;;0.80;;
49320;SDS011;35817;44.498;0.166;2022-11-20T11:18:25;4.80;;;1.23;;
49320;SDS011;35817;44.498;0.166;2022-11-20T11:20:55;2.28;;;0.90;;
49320;SDS011;35817;44.498;0.166;2022-11-20T11:23:41;2.28;;;0.63;;
49320;SDS011;35817;44.498;0.166;2022-11-20T11:26:19;1.10;;;0.65;;
49320;SDS011;35817;44.498;0.166;2022-11-20T11:28:57;1.00;;;0.40;;
49320;SDS011;35817;44.498;0.166;2022-11-20T11:31:30;2.03;;;0.93;;
49320;SDS011;35817;44.498;0.166;2022-11-20T11:34:10;1.27;;;0.57;;
49320;SDS011;35817;44.498;0.166;2022-11-20T11:36:39;1.30;;;1.20;;
49320;SDS011;35817;44.498;0.166;2022-11-20T11:39:05;1.70;;;0.40;;
49320;SDS011;35817;44.498;0.166;2022-11-20T11:41:36;1.60;;;0.90;;
49320;SDS011;35817;44.498;0.166;2022-11-20T11:49:46;4.28;;;0.75;;
49320;SDS011;35817;44.498;0.166;2022-11-20T11:52:17;4.25;;;1.13;;
49320;SDS011;35817;44.498;0.166;2022-11-20T12:00:09;2.92;;;0.80;;
49320;SDS011;35817;44.498;0.166;2022-11-20T12:08:05;4.25;;;0.85;;
49320;SDS011;35817;44.498;0.166;2022-11-20T12:16:02;2.13;;;0.60;;
49320;SDS011;35817;44.498;0.166;2022-11-20T12:18:29;3.25;;;0.52;;
49320;SDS011;35817;44.498;0.166;2022-11-20T12:46:10;3.25;;;0.80;;
49320;SDS011;35817;44.498;0.166;2022-11-20T12:54:22;6.35;;;1.02;;
49320;SDS011;35817;44.498;0.166;2022-11-20T13:05:19;5.72;;;1.02;;
49320;SDS011;35817;44.498;0.166;2022-11-20T13:07:48;5.47;;;0.88;;
49320;SDS011;35817;44.498;0.166;2022-11-20T13:10:20;6.00;;;0.65;;
49320;SDS011;35817;44.498;0.166;2022-11-20T13:12:57;9.45;;;1.52;;
49320;SDS011;35817;44.498;0.166;2022-11-20T13:18:08;7.20;;;1.08;;
49320;SDS011;35817;44.498;0.166;2022-11-20T13:20:40;9.88;;;1.77;;
49320;SDS011;35817;44.498;0.166;2022-11-20T13:23:10;7.03;;;1.63;;
49320;SDS011;35817;44.498;0.166;2022-11-20T13:25:36;3.08;;;0.88;;
49320;SDS011;35817;44.498;0.166;2022-11-20T13:28:04;10.80;;;2.38;;
49320;SDS011;35817;44.498;0.166;2022-11-20T13:30:33;10.98;;;1.95;;
49320;SDS011;35817;44.498;0.166;2022-11-20T13:33:09;7.38;;;1.42;;
49320;SDS011;35817;44.498;0.166;2022-11-20T13:35:58;13.18;;;1.80;;
49320;SDS011;35817;44.498;0.166;2022-11-20T13:38:39;5.53;;;1.63;;
49320;SDS011;35817;44.498;0.166;2022-11-20T13:41:11;8.93;;;1.73;;
49320;SDS011;35817;44.498;0.166;2022-11-20T13:43:54;11.15;;;2.58;;
49320;SDS011;35817;44.498;0.166;2022-11-20T13:46:34;13.23;;;2.25;;
49320;SDS011;35817;44.498;0.166;2022-11-20T13:49:09;6.03;;;1.92;;
49320;SDS011;35817;44.498;0.166;2022-11-20T13:51:43;7.18;;;2.13;;
49320;SDS011;35817;44.498;0.166;2022-11-20T13:54:21;7.57;;;1.95;;
49320;SDS011;35817;44.498;0.166;2022-11-20T14:02:25;11.23;;;2.50;;
49320;SDS011;35817;44.498;0.166;2022-11-20T14:04:54;11.18;;;2.22;;
49320;SDS011;35817;44.498;0.166;2022-11-20T14:07:24;13.13;;;2.28;;
49320;SDS011;35817;44.498;0.166;2022-11-20T14:09:56;13.40;;;2.25;;
49320;SDS011;35817;44.498;0.166;2022-11-20T14:12:26;11.30;;;2.28;;
49320;SDS011;35817;44.498;0.166;2022-11-20T14:14:54;14.82;;;2.55;;
49320;SDS011;35817;44.498;0.166;2022-11-20T14:17:21;7.30;;;1.77;;
49320;SDS011;35817;44.498;0.166;2022-11-20T14:19:53;13.13;;;2.33;;
49320;SDS011;35817;44.498;0.166;2022-11-20T14:22:21;12.02;;;2.67;;
49320;SDS011;35817;44.498;0.166;2022-11-20T14:24:51;9.32;;;2.72;;
49320;SDS011;35817;44.498;0.166;2022-11-20T14:27:44;14.63;;;3.47;;
49320;SDS011;35817;44.498;0.166;2022-11-20T14:30:23;15.00;;;2.15;;
49320;SDS011;35817;44.498;0.166;2022-11-20T14:32:53;13.50;;;2.70;;
49320;SDS011;35817;44.498;0.166;2022-11-20T14:37:55;14.48;;;3.00;;
49320;SDS011;35817;44.498;0.166;2022-11-20T14:40:24;13.02;;;2.10;;
49320;SDS011;35817;44.498;0.166;2022-11-20T14:43:00;4.60;;;1.85;;
49320;SDS011;35817;44.498;0.166;2022-11-20T14:45:29;13.77;;;2.08;;
49320;SDS011;35817;44.498;0.166;2022-11-20T14:47:56;8.13;;;0.93;;
49320;SDS011;35817;44.498;0.166;2022-11-20T14:50:27;8.70;;;1.57;;
49320;SDS011;35817;44.498;0.166;2022-11-20T14:52:55;5.00;;;1.08;;
49320;SDS011;35817;44.498;0.166;2022-11-20T14:55:26;7.82;;;0.95;;
49320;SDS011;35817;44.498;0.166;2022-11-20T14:57:57;8.23;;;1.65;;
49320;SDS011;35817;44.498;0.166;2022-11-20T15:00:28;8.30;;;1.70;;
49320;SDS011;35817;44.498;0.166;2022-11-20T15:02:55;7.05;;;1.30;;
49320;SDS011;35817;44.498;0.166;2022-11-20T15:05:24;12.38;;;1.30;;
49320;SDS011;35817;44.498;0.166;2022-11-20T15:08:10;8.02;;;2.67;;
49320;SDS011;35817;44.498;0.166;2022-11-20T15:10:36;5.95;;;1.25;;
49320;SDS011;35817;44.498;0.166;2022-11-20T15:13:06;5.65;;;1.20;;
49320;SDS011;35817;44.498;0.166;2022-11-20T15:15:47;10.57;;;2.47;;
49320;SDS011;35817;44.498;0.166;2022-11-20T15:18:17;8.73;;;1.15;;
49320;SDS011;35817;44.498;0.166;2022-11-20T15:20:46;6.22;;;1.38;;
49320;SDS011;35817;44.498;0.166;2022-11-20T15:23:14;7.38;;;1.00;;
49320;SDS011;35817;44.498;0.166;2022-11-20T15:25:43;4.55;;;1.33;;
49320;SDS011;35817;44.498;0.166;2022-11-20T15:28:15;6.68;;;1.30;;
49320;SDS011;35817;44.498;0.166;2022-11-20T15:30:44;7.28;;;1.63;;
49320;SDS011;35817;44.498;0.166;2022-11-20T15:33:11;4.38;;;0.90;;
49320;SDS011;35817;44.498;0.166;2022-11-20T15:35:37;6.85;;;1.65;;
49320;SDS011;35817;44.498;0.166;2022-11-20T15:38:03;12.18;;;1.73;;
49320;SDS011;35817;44.498;0.166;2022-11-20T15:40:29;6.72;;;1.98;;
49320;SDS011;35817;44.498;0.166;2022-11-20T15:42:54;4.85;;;1.30;;
49320;SDS011;35817;44.498;0.166;2022-11-20T15:45:33;5.85;;;1.45;;
49320;SDS011;35817;44.498;0.166;2022-11-20T15:47:59;6.97;;;1.60;;
49320;SDS011;35817;44.498;0.166;2022-11-20T15:50:27;5.30;;;1.52;;
49320;SDS011;35817;44.498;0.166;2022-11-20T15:52:59;8.82;;;1.80;;
49320;SDS011;35817;44.498;0.166;2022-11-20T15:55:25;8.18;;;1.42;;
49320;SDS011;35817;44.498;0.166;2022-11-20T15:57:52;10.10;;;2.50;;
49320;SDS011;35817;44.498;0.166;2022-11-20T16:00:17;6.40;;;1.85;;
49320;SDS011;35817;44.498;0.166;2022-11-20T16:02:43;6.00;;;1.08;;
49320;SDS011;35817;44.498;0.166;2022-11-20T16:05:10;6.13;;;0.75;;
49320;SDS011;35817;44.498;0.166;2022-11-20T16:07:37;7.10;;;2.45;;
49320;SDS011;35817;44.498;0.166;2022-11-20T16:10:03;13.90;;;2.03;;
49320;SDS011;35817;44.498;0.166;2022-11-20T16:12:29;4.75;;;1.35;;
49320;SDS011;35817;44.498;0.166;2022-11-20T16:15:13;7.97;;;2.28;;
49320;SDS011;35817;44.498;0.166;2022-11-20T16:17:57;6.72;;;1.40;;
49320;SDS011;35817;44.498;0.166;2022-11-20T16:20:23;6.65;;;1.30;;
49320;SDS011;35817;44.498;0.166;2022-11-20T16:22:49;11.60;;;1.95;;
49320;SDS011;35817;44.498;0.166;2022-11-20T16:25:14;16.00;;;2.30;;
49320;SDS011;35817;44.498;0.166;2022-11-20T16:27:42;14.35;;;3.22;;
49320;SDS011;35817;44.498;0.166;2022-11-20T16:30:08;6.40;;;1.95;;
49320;SDS011;35817;44.498;0.166;2022-11-20T16:32:34;8.38;;;2.25;;
49320;SDS011;35817;44.498;0.166;2022-11-20T16:35:00;16.65;;;2.42;;
49320;SDS011;35817;44.498;0.166;2022-11-20T16:37:25;13.73;;;2.25;;
49320;SDS011;35817;44.498;0.166;2022-11-20T16:39:51;16.05;;;3.25;;
49320;SDS011;35817;44.498;0.166;2022-11-20T16:42:17;5.55;;;1.75;;
49320;SDS011;35817;44.498;0.166;2022-11-20T16:44:44;7.57;;;1.90;;
49320;SDS011;35817;44.498;0.166;2022-11-20T16:47:10;9.88;;;2.45;;
49320;SDS011;35817;44.498;0.166;2022-11-20T16:49:36;10.20;;;1.63;;
49320;SDS011;35817;44.498;0.166;2022-11-20T16:52:02;9.27;;;1.95;;
49320;SDS011;35817;44.498;0.166;2022-11-20T16:54:27;8.45;;;2.25;;